createdAt,value
2017-09-17T00:02:12.715Z,3.00
2017-09-17T00:04:41.339Z,3.67
2017-09-17T00:07:09.618Z,3.43
2017-09-17T00:09:37.903Z,1.80
2017-09-17T00:12:06.192Z,2.77
2017-09-17T00:14:34.493Z,2.67
2017-09-17T00:17:02.771Z,2.37
2017-09-17T00:19:31.099Z,2.40
2017-09-17T00:22:00.160Z,2.93
2017-09-17T00:24:28.456Z,2.47
2017-09-17T00:26:56.783Z,2.77
2017-09-17T00:29:25.827Z,2.70
2017-09-17T00:31:54.109Z,2.67
2017-09-17T00:34:22.391Z,2.60
2017-09-17T00:36:50.712Z,1.73
2017-09-17T00:39:18.994Z,2.40
2017-09-17T00:41:47.279Z,2.23
2017-09-17T00:44:15.599Z,2.17
2017-09-17T00:46:45.388Z,1.90
2017-09-17T00:49:13.711Z,2.43
2017-09-17T00:51:42.030Z,1.90
2017-09-17T00:54:10.373Z,1.67
2017-09-17T00:56:38.887Z,2.83
2017-09-17T00:59:08.032Z,2.77
2017-09-17T01:01:36.883Z,2.40
2017-09-17T01:04:05.160Z,2.10
2017-09-17T01:06:33.439Z,2.23
2017-09-17T01:09:01.962Z,2.50
2017-09-17T01:11:30.262Z,2.70
2017-09-17T01:13:58.563Z,2.03
2017-09-17T01:16:27.620Z,2.30
2017-09-17T01:18:55.900Z,2.50
2017-09-17T01:21:24.214Z,2.60
2017-09-17T01:23:52.506Z,3.10
2017-09-17T01:26:20.795Z,2.13
2017-09-17T01:28:49.122Z,2.43
2017-09-17T01:31:18.174Z,2.37
2017-09-17T01:33:46.464Z,2.37
2017-09-17T01:36:14.783Z,2.40
2017-09-17T01:38:43.256Z,2.00
2017-09-17T01:41:11.564Z,2.23
2017-09-17T01:43:39.852Z,2.10
2017-09-17T01:46:08.140Z,1.80
2017-09-17T01:48:36.467Z,2.57
2017-09-17T01:51:05.511Z,2.00
2017-09-17T01:53:33.802Z,1.90
2017-09-17T01:56:02.075Z,2.27
2017-09-17T01:58:30.363Z,2.20
2017-09-17T02:00:58.668Z,2.20
2017-09-17T02:03:27.006Z,2.30
2017-09-17T02:05:56.117Z,2.13
2017-09-17T02:08:25.168Z,2.40
2017-09-17T02:10:53.446Z,2.17
2017-09-17T02:13:21.766Z,2.60
2017-09-17T02:15:50.076Z,2.10
2017-09-17T02:18:19.138Z,6.37
2017-09-17T02:20:47.432Z,5.57
2017-09-17T02:23:15.712Z,4.17
2017-09-17T02:25:44.017Z,4.20
2017-09-17T02:28:12.296Z,3.47
2017-09-17T02:30:40.594Z,2.83
2017-09-17T02:33:08.898Z,3.17
2017-09-17T02:35:38.723Z,4.80
2017-09-17T02:38:07.012Z,4.93
2017-09-17T02:40:35.325Z,4.43
2017-09-17T02:43:03.616Z,2.67
2017-09-17T02:45:32.701Z,2.60
2017-09-17T02:48:00.977Z,3.53
2017-09-17T02:50:29.288Z,2.70
2017-09-17T02:52:57.582Z,2.03
2017-09-17T02:55:26.048Z,2.43
2017-09-17T02:57:55.859Z,2.40
2017-09-17T03:00:24.174Z,2.20
2017-09-17T03:02:52.466Z,2.20
2017-09-17T03:05:20.742Z,1.70
2017-09-17T03:07:49.020Z,1.60
2017-09-17T03:10:17.299Z,1.93
2017-09-17T03:12:45.608Z,2.10
2017-09-17T03:15:13.891Z,1.80
2017-09-17T03:17:42.183Z,1.33
2017-09-17T03:20:10.470Z,1.60
2017-09-17T03:22:38.757Z,2.13
2017-09-17T03:25:07.057Z,1.33
2017-09-17T03:27:35.362Z,1.90
2017-09-17T03:30:03.681Z,1.40
2017-09-17T03:32:31.958Z,1.67
2017-09-17T03:35:00.998Z,1.60
2017-09-17T03:37:29.290Z,1.20
2017-09-17T03:39:57.594Z,1.00
2017-09-17T03:42:25.936Z,1.10
2017-09-17T03:44:54.235Z,1.40
2017-09-17T03:47:22.524Z,1.40
2017-09-17T03:49:50.799Z,1.30
2017-09-17T03:52:19.852Z,1.10
2017-09-17T03:54:48.130Z,1.20
2017-09-17T03:57:16.422Z,1.57
2017-09-17T03:59:44.935Z,1.60
2017-09-17T04:02:13.318Z,0.90
2017-09-17T04:04:41.591Z,1.13
2017-09-17T04:07:10.622Z,1.37
2017-09-17T04:09:38.899Z,0.90
2017-09-17T04:12:07.188Z,1.10
2017-09-17T04:14:35.464Z,1.10
2017-09-17T04:17:03.772Z,1.07
2017-09-17T04:19:32.053Z,1.60
2017-09-17T04:22:00.347Z,0.93
2017-09-17T04:24:28.737Z,1.30
2017-09-17T04:26:57.044Z,1.07
2017-09-17T04:29:26.025Z,1.37
2017-09-17T04:31:55.749Z,1.03
2017-09-17T04:34:24.056Z,1.07
2017-09-17T04:36:52.380Z,0.87
2017-09-17T04:39:21.416Z,0.90
2017-09-17T04:41:49.740Z,0.97
2017-09-17T04:44:18.055Z,0.90
2017-09-17T04:46:47.102Z,1.93
2017-09-17T04:49:15.387Z,0.90
2017-09-17T04:51:43.732Z,1.10
2017-09-17T04:54:12.044Z,1.50
2017-09-17T04:56:40.800Z,1.20
2017-09-17T04:59:09.091Z,1.20
2017-09-17T05:01:37.523Z,1.77
2017-09-17T05:04:05.812Z,1.10
2017-09-17T05:06:34.212Z,1.40
2017-09-17T05:09:02.496Z,1.30
2017-09-17T05:11:30.780Z,1.37
2017-09-17T05:13:59.112Z,1.30
2017-09-17T05:16:27.396Z,1.40
2017-09-17T05:18:56.466Z,0.90
2017-09-17T05:21:24.767Z,1.20
2017-09-17T05:23:53.055Z,1.77
2017-09-17T05:26:21.360Z,1.90
2017-09-17T05:28:49.643Z,1.30
2017-09-17T05:31:18.055Z,1.40
2017-09-17T05:33:46.337Z,1.83
2017-09-17T05:36:14.623Z,1.40
2017-09-17T05:38:42.900Z,1.20
2017-09-17T05:41:11.191Z,1.50
2017-09-17T05:43:39.467Z,1.47
2017-09-17T05:46:07.750Z,1.30
2017-09-17T05:48:36.030Z,1.70
2017-09-17T05:51:05.080Z,1.80
2017-09-17T05:53:33.387Z,2.37
2017-09-17T05:56:01.712Z,2.07
2017-09-17T05:58:30.756Z,1.67
2017-09-17T06:00:59.079Z,2.30
2017-09-17T06:03:28.165Z,2.40
2017-09-17T06:05:56.460Z,2.10
2017-09-17T06:08:24.865Z,2.03
2017-09-17T06:10:53.226Z,2.23
2017-09-17T06:13:21.513Z,2.10
2017-09-17T06:15:49.792Z,2.83
2017-09-17T06:18:18.093Z,1.60
2017-09-17T06:20:46.396Z,1.50
2017-09-17T06:23:14.674Z,1.07
2017-09-17T06:25:42.955Z,1.30
2017-09-17T06:28:11.242Z,1.40
2017-09-17T06:30:39.548Z,1.83
2017-09-17T06:33:07.937Z,2.00
2017-09-17T06:35:36.370Z,1.60
2017-09-17T06:38:05.419Z,1.97
2017-09-17T06:40:33.778Z,2.00
2017-09-17T06:43:02.107Z,2.10
2017-09-17T06:45:30.383Z,1.90
2017-09-17T06:47:58.674Z,1.10
2017-09-17T06:50:26.973Z,1.40
2017-09-17T06:52:55.273Z,1.50
2017-09-17T06:55:23.578Z,1.90
2017-09-17T06:57:52.642Z,1.70
2017-09-17T07:00:20.915Z,1.97
2017-09-17T07:02:49.219Z,1.73
2017-09-17T07:05:17.498Z,1.50
2017-09-17T07:07:45.807Z,1.93
2017-09-17T07:10:14.090Z,1.60
2017-09-17T07:12:42.381Z,1.80
2017-09-17T07:15:10.667Z,1.83
2017-09-17T07:17:38.951Z,1.80
2017-09-17T07:20:07.238Z,1.80
2017-09-17T07:22:35.549Z,2.10
2017-09-17T07:25:03.829Z,1.40
2017-09-17T07:27:32.106Z,1.83
2017-09-17T07:30:00.418Z,2.27
2017-09-17T07:32:28.704Z,2.03
2017-09-17T07:34:57.031Z,1.90
2017-09-17T07:37:26.114Z,1.83
2017-09-17T07:39:54.409Z,1.53
2017-09-17T07:42:22.694Z,1.90
2017-09-17T07:44:50.989Z,2.00
2017-09-17T07:47:19.275Z,1.60
2017-09-17T07:49:47.587Z,1.23
2017-09-17T07:52:16.640Z,1.20
2017-09-17T07:54:44.915Z,1.87
2017-09-17T07:57:13.207Z,1.10
2017-09-17T07:59:41.512Z,1.10
2017-09-17T08:02:09.804Z,0.80
2017-09-17T08:04:38.088Z,0.80
2017-09-17T08:07:06.390Z,0.80
2017-09-17T08:09:34.673Z,0.63
2017-09-17T08:12:03.031Z,1.03
2017-09-17T08:14:31.354Z,0.70
2017-09-17T08:16:59.639Z,1.00
2017-09-17T08:19:27.943Z,0.80
2017-09-17T08:21:56.244Z,1.03
2017-09-17T08:24:24.996Z,0.80
2017-09-17T08:26:53.285Z,0.60
2017-09-17T08:29:21.568Z,0.83
2017-09-17T08:31:49.879Z,0.90
2017-09-17T08:34:18.166Z,1.00
2017-09-17T08:36:46.475Z,0.70
2017-09-17T08:39:14.779Z,0.60
2017-09-17T08:41:43.080Z,0.70
2017-09-17T08:44:12.137Z,1.07
2017-09-17T08:46:40.422Z,1.00
2017-09-17T08:49:08.710Z,0.70
2017-09-17T08:51:37.003Z,0.90
2017-09-17T08:54:05.287Z,0.97
2017-09-17T08:56:33.575Z,1.00
2017-09-17T08:59:01.876Z,0.80
2017-09-17T09:01:30.207Z,0.90
2017-09-17T09:03:59.264Z,0.90
2017-09-17T09:06:27.550Z,1.00
2017-09-17T09:08:56.082Z,1.00
2017-09-17T09:11:24.469Z,0.80
2017-09-17T09:13:52.768Z,0.90
2017-09-17T09:16:21.056Z,0.97
2017-09-17T09:18:49.336Z,0.80
2017-09-17T09:21:17.651Z,1.30
2017-09-17T09:23:46.703Z,0.90
2017-09-17T09:26:15.002Z,0.70
2017-09-17T09:28:43.288Z,0.77
2017-09-17T09:31:11.591Z,0.90
2017-09-17T09:33:39.878Z,0.60
2017-09-17T09:36:08.181Z,0.60
2017-09-17T09:38:36.495Z,0.70
2017-09-17T09:41:04.782Z,0.90
2017-09-17T09:43:33.866Z,0.67
2017-09-17T09:46:02.327Z,0.83
2017-09-17T09:48:30.939Z,0.60
2017-09-17T09:50:59.230Z,0.50
2017-09-17T09:53:27.541Z,0.50
2017-09-17T09:55:55.838Z,0.50
2017-09-17T09:58:24.910Z,0.63
2017-09-17T10:00:53.199Z,0.73
2017-09-17T10:03:21.510Z,0.50
2017-09-17T10:05:49.803Z,0.60
2017-09-17T10:08:18.096Z,0.50
2017-09-17T10:10:47.146Z,0.60
2017-09-17T10:13:15.438Z,0.60
2017-09-17T10:15:43.767Z,0.50
2017-09-17T10:18:12.061Z,0.50
2017-09-17T10:20:40.343Z,0.53
2017-09-17T10:23:08.626Z,0.70
2017-09-17T10:25:36.945Z,0.60
2017-09-17T10:28:05.998Z,0.50
2017-09-17T10:30:34.282Z,0.60
2017-09-17T10:33:02.639Z,0.60
2017-09-17T10:35:30.927Z,0.70
2017-09-17T10:37:59.244Z,0.60
2017-09-17T10:40:27.539Z,0.60
2017-09-17T10:42:55.879Z,0.60
2017-09-17T10:45:24.235Z,0.70
2017-09-17T10:47:52.546Z,0.60
2017-09-17T10:50:20.826Z,0.70
2017-09-17T10:52:49.119Z,0.67
2017-09-17T10:55:17.402Z,0.60
2017-09-17T10:57:45.696Z,0.60
2017-09-17T11:00:14.006Z,0.57
2017-09-17T11:02:43.067Z,0.70
2017-09-17T11:05:11.357Z,0.70
2017-09-17T11:07:39.648Z,0.57
2017-09-17T11:10:07.934Z,0.60
2017-09-17T11:12:36.215Z,0.60
2017-09-17T11:15:04.617Z,0.57
2017-09-17T11:17:33.147Z,0.60
2017-09-17T11:20:01.459Z,0.70
2017-09-17T11:22:29.757Z,0.60
2017-09-17T11:24:58.070Z,0.60
2017-09-17T11:27:26.383Z,0.50
2017-09-17T11:29:54.714Z,0.60
2017-09-17T11:32:23.003Z,0.50
2017-09-17T11:34:51.322Z,0.50
2017-09-17T11:37:19.608Z,0.60
2017-09-17T11:39:47.915Z,0.60
2017-09-17T11:42:16.200Z,0.70
2017-09-17T11:44:44.491Z,0.73
2017-09-17T11:47:13.543Z,0.70
2017-09-17T11:49:42.606Z,0.60
2017-09-17T11:52:10.893Z,0.80
2017-09-17T11:54:39.182Z,0.60
2017-09-17T11:57:07.502Z,0.80
2017-09-17T11:59:36.550Z,0.63
2017-09-17T12:02:04.833Z,0.60
2017-09-17T12:04:33.147Z,0.60
2017-09-17T12:07:01.427Z,0.60
2017-09-17T12:09:29.734Z,0.60
2017-09-17T12:11:58.047Z,0.50
2017-09-17T12:14:26.424Z,0.60
2017-09-17T12:16:54.738Z,0.60
2017-09-17T12:19:23.796Z,0.60
2017-09-17T12:21:52.104Z,0.70
2017-09-17T12:24:20.407Z,0.60
2017-09-17T12:26:50.195Z,0.60
2017-09-17T12:29:18.486Z,0.50
2017-09-17T12:31:46.810Z,0.50
2017-09-17T12:34:15.090Z,0.57
2017-09-17T12:36:44.886Z,0.60
2017-09-17T12:39:13.199Z,0.57
2017-09-17T12:41:41.485Z,0.70
2017-09-17T12:44:09.828Z,0.60
2017-09-17T12:46:38.107Z,0.60
2017-09-17T12:49:06.395Z,0.70
2017-09-17T12:51:35.443Z,0.50
2017-09-17T12:54:03.723Z,0.70
2017-09-17T12:56:32.018Z,0.60
2017-09-17T12:59:00.307Z,0.57
2017-09-17T13:01:28.688Z,0.70
2017-09-17T13:03:57.031Z,0.73
2017-09-17T13:06:26.119Z,0.60
2017-09-17T13:08:54.415Z,0.60
2017-09-17T13:11:22.735Z,0.50
2017-09-17T13:13:51.787Z,0.50
2017-09-17T13:16:20.091Z,0.57
2017-09-17T13:18:48.412Z,0.80
2017-09-17T13:21:17.467Z,0.57
2017-09-17T13:23:46.677Z,0.60
2017-09-17T13:26:15.321Z,0.70
2017-09-17T13:28:43.621Z,0.60
2017-09-17T13:31:12.690Z,0.63
2017-09-17T13:33:40.998Z,0.67
2017-09-17T13:36:10.058Z,0.60
2017-09-17T13:38:38.352Z,0.63
2017-09-17T13:41:06.636Z,0.50
2017-09-17T13:43:34.932Z,0.60
2017-09-17T13:46:03.263Z,0.50
2017-09-17T13:48:31.555Z,0.50
2017-09-17T13:50:59.917Z,0.70
2017-09-17T13:53:28.221Z,0.53
2017-09-17T13:55:57.333Z,0.70
2017-09-17T13:58:25.630Z,0.50
2017-09-17T14:00:56.292Z,0.60
2017-09-17T14:03:34.495Z,0.70
2017-09-17T14:06:16.444Z,0.70
2017-09-17T14:08:54.632Z,0.57
2017-09-17T14:11:23.711Z,0.80
2017-09-17T14:13:51.996Z,1.13
2017-09-17T14:16:20.275Z,0.70
2017-09-17T14:18:48.598Z,0.60
2017-09-17T14:21:16.896Z,0.80
2017-09-17T14:23:45.951Z,0.60
2017-09-17T14:26:14.314Z,0.60
2017-09-17T14:28:42.635Z,0.80
2017-09-17T14:31:10.975Z,0.70
2017-09-17T14:33:40.026Z,0.60
2017-09-17T14:36:08.335Z,0.60
2017-09-17T14:38:36.660Z,0.63
2017-09-17T14:41:05.828Z,0.70
2017-09-17T14:43:34.113Z,0.77
2017-09-17T14:46:02.639Z,0.70
2017-09-17T14:48:30.925Z,1.10
2017-09-17T14:50:59.542Z,0.63
2017-09-17T14:53:28.620Z,0.80
2017-09-17T14:55:57.716Z,0.80
2017-09-17T14:58:26.007Z,0.70
2017-09-17T15:00:54.311Z,0.77
2017-09-17T15:03:23.374Z,0.70
2017-09-17T15:05:51.662Z,0.87
2017-09-17T15:08:19.999Z,0.70
2017-09-17T15:10:49.074Z,0.60
2017-09-17T15:13:17.355Z,0.80
2017-09-17T15:15:45.823Z,0.63
2017-09-17T15:18:14.153Z,0.60
2017-09-17T15:20:42.440Z,0.73
2017-09-17T15:23:10.743Z,0.60
2017-09-17T15:25:39.563Z,0.50
2017-09-17T15:28:08.851Z,0.60
2017-09-17T15:30:37.142Z,0.57
2017-09-17T15:33:05.424Z,0.60
2017-09-17T15:35:33.923Z,0.73
2017-09-17T15:38:02.335Z,0.70
2017-09-17T15:40:30.658Z,0.67
2017-09-17T15:42:59.079Z,0.80
2017-09-17T15:45:27.402Z,0.87
2017-09-17T15:47:56.503Z,0.53
2017-09-17T15:50:25.791Z,0.80
2017-09-17T15:52:54.146Z,0.77
2017-09-17T15:55:22.484Z,0.60
2017-09-17T15:57:50.785Z,0.60
2017-09-17T16:00:19.069Z,0.80
2017-09-17T16:02:48.891Z,0.60
2017-09-17T16:05:17.183Z,0.60
2017-09-17T16:07:45.723Z,0.63
2017-09-17T16:10:14.076Z,0.70
2017-09-17T16:12:43.880Z,0.80
2017-09-17T16:15:12.195Z,0.70
2017-09-17T16:17:41.253Z,0.60
2017-09-17T16:20:09.557Z,0.70
2017-09-17T16:22:37.840Z,0.77
2017-09-17T16:25:06.170Z,0.63
2017-09-17T16:27:35.246Z,0.70
2017-09-17T16:30:03.567Z,0.70
2017-09-17T16:32:31.850Z,0.63
2017-09-17T16:35:00.187Z,0.70
2017-09-17T16:37:28.872Z,0.70
2017-09-17T16:39:57.171Z,0.80
2017-09-17T16:42:25.520Z,0.70
2017-09-17T16:44:54.582Z,0.70
2017-09-17T16:47:22.915Z,0.70
2017-09-17T16:49:51.229Z,1.10
2017-09-17T16:52:19.543Z,1.07
2017-09-17T16:54:47.849Z,0.80
2017-09-17T16:57:16.483Z,1.00
2017-09-17T16:59:44.778Z,0.83
2017-09-17T17:02:13.863Z,1.77
2017-09-17T17:04:42.146Z,0.90
2017-09-17T17:07:10.471Z,1.00
2017-09-17T17:09:39.511Z,0.83
2017-09-17T17:12:07.837Z,0.87
2017-09-17T17:14:36.110Z,1.10
2017-09-17T17:17:04.399Z,0.90
2017-09-17T17:19:32.922Z,1.00
2017-09-17T17:22:01.268Z,1.37
2017-09-17T17:24:29.583Z,1.30
2017-09-17T17:26:57.912Z,1.10
2017-09-17T17:29:26.233Z,0.97
2017-09-17T17:31:54.587Z,1.37
2017-09-17T17:34:22.928Z,1.00
2017-09-17T17:36:51.211Z,1.20
2017-09-17T17:39:19.491Z,1.27
2017-09-17T17:41:47.772Z,0.90
2017-09-17T17:44:16.096Z,1.70
2017-09-17T17:46:44.388Z,2.43
2017-09-17T17:49:12.886Z,1.73
2017-09-17T17:51:41.939Z,1.27
2017-09-17T17:54:10.223Z,1.03
2017-09-17T17:56:38.531Z,1.30
2017-09-17T17:59:06.837Z,1.40
2017-09-17T18:01:35.143Z,1.70
2017-09-17T18:04:03.545Z,1.23
2017-09-17T18:06:32.621Z,1.30
2017-09-17T18:09:00.939Z,1.20
2017-09-17T18:11:29.250Z,1.30
2017-09-17T18:13:57.621Z,1.77
2017-09-17T18:16:27.300Z,1.77
2017-09-17T18:18:55.668Z,1.90
2017-09-17T18:21:24.021Z,2.17
2017-09-17T18:23:52.301Z,1.47
2017-09-17T18:26:22.083Z,1.60
2017-09-17T18:28:50.408Z,2.03
2017-09-17T18:31:18.955Z,2.23
2017-09-17T18:33:47.231Z,1.60
2017-09-17T18:36:16.280Z,1.60
2017-09-17T18:38:44.622Z,1.63
2017-09-17T18:41:12.941Z,1.83
2017-09-17T18:43:41.214Z,1.77
2017-09-17T18:46:09.768Z,1.53
2017-09-17T18:48:38.046Z,1.80
2017-09-17T18:51:12.028Z,1.70
2017-09-17T18:53:40.376Z,1.70
2017-09-17T18:56:08.639Z,1.97
2017-09-17T18:58:36.951Z,1.43
2017-09-17T19:01:05.223Z,1.73
2017-09-17T19:03:33.504Z,1.30
2017-09-17T19:06:01.793Z,1.10
2017-09-17T19:08:30.109Z,1.23
2017-09-17T19:10:58.412Z,1.67
2017-09-17T19:13:27.477Z,1.20
2017-09-17T19:15:56.205Z,1.50
2017-09-17T19:18:25.307Z,1.30
2017-09-17T19:20:53.591Z,1.37
2017-09-17T19:23:21.884Z,1.60
2017-09-17T19:25:50.190Z,1.80
2017-09-17T19:28:18.675Z,1.87
2017-09-17T19:30:47.203Z,1.80
2017-09-17T19:33:15.488Z,1.80
2017-09-17T19:35:43.796Z,1.47
2017-09-17T19:38:12.067Z,1.90
2017-09-17T19:40:40.371Z,1.90
2017-09-17T19:43:08.683Z,1.53
2017-09-17T19:45:37.735Z,1.70
2017-09-17T19:48:06.774Z,1.80
2017-09-17T19:50:35.047Z,1.43
2017-09-17T19:53:03.588Z,1.30
2017-09-17T19:55:31.925Z,1.67
2017-09-17T19:58:00.215Z,1.60
2017-09-17T20:00:28.652Z,1.73
2017-09-17T20:02:57.040Z,1.50
2017-09-17T20:05:26.176Z,1.63
2017-09-17T20:07:54.471Z,1.70
2017-09-17T20:10:23.528Z,1.60
2017-09-17T20:12:51.803Z,2.23
2017-09-17T20:15:20.080Z,2.37
2017-09-17T20:17:48.579Z,2.47
2017-09-17T20:20:16.891Z,2.23
2017-09-17T20:22:45.180Z,2.00
2017-09-17T20:25:14.456Z,2.50
2017-09-17T20:27:42.734Z,2.60
2017-09-17T20:30:11.775Z,2.13
2017-09-17T20:32:40.127Z,2.00
2017-09-17T20:35:08.399Z,2.20
2017-09-17T20:37:36.679Z,1.83
2017-09-17T20:40:04.991Z,1.57
2017-09-17T20:42:34.052Z,1.70
2017-09-17T20:45:02.363Z,1.50
2017-09-17T20:47:30.828Z,2.63
2017-09-17T20:49:59.131Z,2.87
2017-09-17T20:52:27.453Z,2.13
2017-09-17T20:54:55.774Z,1.97
2017-09-17T20:57:24.089Z,1.30
2017-09-17T20:59:52.495Z,1.30
2017-09-17T21:02:20.954Z,1.57
2017-09-17T21:04:49.267Z,1.53
2017-09-17T21:07:17.568Z,1.23
2017-09-17T21:09:45.880Z,1.40
2017-09-17T21:12:14.160Z,1.13
2017-09-17T21:14:42.653Z,1.20
2017-09-17T21:17:11.132Z,1.20
2017-09-17T21:19:39.408Z,1.40
2017-09-17T21:22:08.447Z,1.20
2017-09-17T21:24:37.207Z,1.50
2017-09-17T21:27:05.512Z,1.23
2017-09-17T21:29:33.787Z,1.17
2017-09-17T21:32:02.255Z,1.30
2017-09-17T21:34:30.567Z,1.60
2017-09-17T21:36:59.248Z,1.37
2017-09-17T21:39:27.560Z,1.27
2017-09-17T21:41:55.882Z,1.20
2017-09-17T21:44:24.183Z,1.37
2017-09-17T21:46:53.272Z,1.27
2017-09-17T21:49:21.557Z,1.53
2017-09-17T21:51:49.828Z,1.20
2017-09-17T21:54:18.116Z,1.60
2017-09-17T21:56:46.722Z,1.07
2017-09-17T21:59:15.123Z,1.23
2017-09-17T22:01:43.398Z,1.30
2017-09-17T22:04:11.680Z,1.37
2017-09-17T22:06:40.103Z,1.50
2017-09-17T22:09:08.417Z,1.30
2017-09-17T22:11:37.483Z,1.10
2017-09-17T22:14:05.763Z,1.47
2017-09-17T22:16:34.067Z,1.47
2017-09-17T22:19:02.384Z,0.97
2017-09-17T22:21:31.454Z,1.33
2017-09-17T22:23:59.734Z,1.30
2017-09-17T22:26:28.007Z,1.10
2017-09-17T22:28:56.391Z,1.20
2017-09-17T22:31:24.667Z,1.20
2017-09-17T22:33:52.982Z,1.10
2017-09-17T22:36:21.250Z,1.37
2017-09-17T22:38:49.564Z,1.43
2017-09-17T22:41:17.842Z,1.37
2017-09-17T22:43:46.127Z,1.20
2017-09-17T22:46:14.433Z,2.23
2017-09-17T22:48:43.503Z,2.47
2017-09-17T22:51:11.818Z,1.50
2017-09-17T22:53:40.098Z,1.47
2017-09-17T22:56:08.407Z,1.10
2017-09-17T22:58:36.707Z,1.20
2017-09-17T23:01:04.987Z,1.20
2017-09-17T23:03:33.298Z,1.60
2017-09-17T23:06:01.831Z,1.33
2017-09-17T23:08:30.119Z,1.17
2017-09-17T23:10:58.464Z,1.43
2017-09-17T23:13:26.765Z,1.67
2017-09-17T23:15:55.054Z,1.53
2017-09-17T23:18:24.139Z,1.10
2017-09-17T23:20:52.444Z,1.10
2017-09-17T23:23:20.766Z,1.80
2017-09-17T23:25:49.045Z,1.20
2017-09-17T23:28:18.091Z,1.10
2017-09-17T23:30:46.415Z,1.20
2017-09-17T23:33:14.732Z,1.00
2017-09-17T23:35:43.782Z,1.10
2017-09-17T23:38:12.119Z,1.30
2017-09-17T23:40:41.163Z,1.70
2017-09-17T23:43:09.519Z,1.50
2017-09-17T23:45:38.580Z,1.73
2017-09-17T23:48:06.870Z,1.00
2017-09-17T23:50:35.276Z,1.43
2017-09-17T23:53:03.552Z,1.40
2017-09-17T23:55:31.854Z,1.53
2017-09-17T23:58:00.132Z,1.53
